Shinsei Maru No.3 — JK5120 — position and weather

sailwx.info

Track history (hours):
 
Tides and Currents Weather Stations Pressure Air Temp Water Temp Dewpoint Dewpoint Depression Visibility Wind Speed Wind Dir Waves Ship Positions

Shinsei Maru No.3

Last reported at 2017-Nov-23 10:56 UTC. Time now 2017-Nov-23 11:13 UTC.
Position N 35°21' E 139°41'.

Length 67 m.

Type: Tanker. MMSI: 431401672.

Date/timePositionNaut miles runAvg speedWind from/ knotsBaromVisibWave heightAir tempDewpointWater temp
2017-Nov-23 10:56N 35°21' E 139°41'0 0.0
2017-Nov-23 10:17N 35°21' E 139°41'0 0.0
2017-Nov-23 09:05N 35°21' E 139°41'0 0.0
2017-Nov-23 08:59N 35°21' E 139°41'0 0.1
2017-Nov-23 08:11N 35°21' E 139°41'0 0.0
2017-Nov-23 07:47N 35°21' E 139°41'0 0.0
2017-Nov-23 06:47N 35°21' E 139°41'0 0.0
2017-Nov-23 06:23N 35°21' E 139°41'0 0.0
2017-Nov-23 05:47N 35°21' E 139°41'0 0.0
2017-Nov-23 05:26N 35°21' E 139°41'0 0.0
2017-Nov-23 04:59N 35°21' E 139°41'0 0.0
2017-Nov-23 04:29N 35°21' E 139°41'0 0.0
2017-Nov-23 02:32N 35°21' E 139°41'0 0.1
2017-Nov-23 02:29N 35°21' E 139°41'0 0.0
2017-Nov-23 01:47N 35°21' E 139°41'0 0.0
2017-Nov-23 01:29N 35°21' E 139°41'0 0.0
2017-Nov-22 23:14N 35°21' E 139°41'0 0.0
2017-Nov-22 22:59N 35°21' E 139°41'0 0.1
2017-Nov-22 22:29N 35°21' E 139°41'4 8.0
2017-Nov-22 22:00N 35°18' E 139°44'510.7
2017-Nov-22 21:30N 35°13' E 139°47'510.4
2017-Nov-22 20:59N 35°08' E 139°45'510.0
2017-Nov-22 20:30N 35°04' E 139°41'510.2
2017-Nov-22 19:59N 35°01' E 139°36'  
2017-Nov-17 15:14N 34°37' E 135°02'2 8.2
2017-Nov-17 15:00N 34°36' E 135°04'228 7.4
2017-Nov-16 08:24N 35°06' E 139°39'410.2
2017-Nov-16 08:00N 35°09' E 139°43'611.2
2017-Nov-16 07:29N 35°14' E 139°46'511.3
2017-Nov-16 07:00N 35°19' E 139°43'510.7
2017-Nov-16 06:30N 35°24' E 139°43'4 0.3
2017-Nov-15 18:42N 35°25' E 139°47'210.9
2017-Nov-15 18:30N 35°23' E 139°46'610.2
2017-Nov-15 17:56N 35°17' E 139°45'511.1
2017-Nov-15 17:30N 35°13' E 139°47'610.9
2017-Nov-15 16:58N 35°07' E 139°45'510.8
2017-Nov-15 16:30N 35°03' E 139°41'  
Track history (hours):
 
Tides and Currents Weather Stations Pressure Air Temp Water Temp Dewpoint Dewpoint Depression Visibility Wind Speed Wind Dir Waves Ship Positions

Shinsei Maru No.3

Last reported at 2017-Nov-23 10:56 UTC. Time now 2017-Nov-23 11:13 UTC.
Position N 35°21' E 139°41'.

Length 67 m.

Type: Tanker. MMSI: 431401672.

Date/timePositionNaut miles runAvg speedWind from/ knotsBaromVisibWave heightAir tempDewpointWater temp
2017-Nov-23 10:56N 35°21' E 139°41'0 0.0
2017-Nov-23 10:17N 35°21' E 139°41'0 0.0
2017-Nov-23 09:05N 35°21' E 139°41'0 0.0
2017-Nov-23 08:59N 35°21' E 139°41'0 0.1
2017-Nov-23 08:11N 35°21' E 139°41'0 0.0
2017-Nov-23 07:47N 35°21' E 139°41'0 0.0
2017-Nov-23 06:47N 35°21' E 139°41'0 0.0
2017-Nov-23 06:23N 35°21' E 139°41'0 0.0
2017-Nov-23 05:47N 35°21' E 139°41'0 0.0
2017-Nov-23 05:26N 35°21' E 139°41'0 0.0
2017-Nov-23 04:59N 35°21' E 139°41'0 0.0
2017-Nov-23 04:29N 35°21' E 139°41'0 0.0
2017-Nov-23 02:32N 35°21' E 139°41'0 0.1
2017-Nov-23 02:29N 35°21' E 139°41'0 0.0
2017-Nov-23 01:47N 35°21' E 139°41'0 0.0
2017-Nov-23 01:29N 35°21' E 139°41'0 0.0
2017-Nov-22 23:14N 35°21' E 139°41'0 0.0
2017-Nov-22 22:59N 35°21' E 139°41'0 0.1
2017-Nov-22 22:29N 35°21' E 139°41'4 8.0
2017-Nov-22 22:00N 35°18' E 139°44'510.7
2017-Nov-22 21:30N 35°13' E 139°47'510.4
2017-Nov-22 20:59N 35°08' E 139°45'510.0
2017-Nov-22 20:30N 35°04' E 139°41'510.2
2017-Nov-22 19:59N 35°01' E 139°36'  
2017-Nov-17 15:14N 34°37' E 135°02'2 8.2
2017-Nov-17 15:00N 34°36' E 135°04'228 7.4
2017-Nov-16 08:24N 35°06' E 139°39'410.2
2017-Nov-16 08:00N 35°09' E 139°43'611.2
2017-Nov-16 07:29N 35°14' E 139°46'511.3
2017-Nov-16 07:00N 35°19' E 139°43'510.7
2017-Nov-16 06:30N 35°24' E 139°43'4 0.3
2017-Nov-15 18:42N 35°25' E 139°47'210.9
2017-Nov-15 18:30N 35°23' E 139°46'610.2
2017-Nov-15 17:56N 35°17' E 139°45'511.1
2017-Nov-15 17:30N 35°13' E 139°47'610.9
2017-Nov-15 16:58N 35°07' E 139°45'510.8
2017-Nov-15 16:30N 35°03' E 139°41'  

Dump ship's entire track history